createdAt,value
2019-05-14T00:02:52.160Z,1.20
2019-05-14T00:05:53.262Z,1.60
2019-05-14T00:08:54.177Z,1.67
2019-05-14T00:11:54.754Z,1.67
2019-05-14T00:14:55.362Z,1.80
2019-05-14T00:17:56.000Z,1.57
2019-05-14T00:20:56.408Z,1.70
2019-05-14T00:23:57.237Z,1.73
2019-05-14T00:26:58.198Z,1.80
2019-05-14T00:29:58.837Z,1.87
2019-05-14T00:33:01.280Z,1.90
2019-05-14T00:36:02.349Z,1.57
2019-05-14T00:39:03.269Z,1.70
2019-05-14T00:42:04.566Z,1.60
2019-05-14T00:45:05.649Z,1.90
2019-05-14T00:48:06.649Z,2.00
2019-05-14T00:51:07.269Z,1.90
2019-05-14T00:54:07.717Z,1.80
2019-05-14T00:57:08.589Z,1.97
2019-05-14T01:00:11.503Z,1.90
2019-05-14T01:03:11.337Z,2.10
2019-05-14T01:06:12.254Z,2.20
2019-05-14T01:09:12.916Z,2.17
2019-05-14T01:12:13.385Z,1.90
2019-05-14T01:15:14.400Z,2.33
2019-05-14T01:18:15.709Z,2.20
2019-05-14T01:21:16.311Z,2.10
2019-05-14T01:24:05.092Z,2.30
2019-05-14T01:27:13.135Z,2.07
2019-05-14T01:30:21.459Z,2.07
2019-05-14T01:33:31.831Z,2.50
2019-05-14T01:36:41.332Z,2.57
2019-05-14T01:39:42.759Z,2.90
2019-05-14T01:42:32.134Z,2.20
2019-05-14T01:45:41.793Z,2.27
2019-05-14T01:48:52.146Z,2.83
2019-05-14T01:52:01.759Z,2.30
2019-05-14T01:55:11.364Z,2.77
2019-05-14T01:58:22.059Z,2.67
2019-05-14T02:01:31.499Z,2.40
2019-05-14T02:04:42.415Z,2.77
2019-05-14T02:07:49.613Z,2.50
2019-05-14T02:10:57.621Z,2.50
2019-05-14T02:14:05.648Z,2.47
2019-05-14T02:17:13.657Z,2.63
2019-05-14T02:20:21.747Z,3.13
2019-05-14T02:23:31.781Z,2.63
2019-05-14T02:26:42.195Z,3.37
2019-05-14T02:29:49.215Z,3.80
2019-05-14T02:32:59.641Z,3.40
2019-05-14T02:36:10.143Z,3.83
2019-05-14T02:39:10.379Z,4.20
2019-05-14T02:42:10.934Z,3.50
2019-05-14T02:45:11.649Z,3.23
2019-05-14T02:48:12.458Z,3.40
2019-05-14T02:51:13.255Z,3.80
2019-05-14T02:54:13.898Z,2.90
2019-05-14T02:57:14.731Z,3.37
2019-05-14T03:00:15.170Z,2.70
2019-05-14T03:03:19.013Z,2.90
2019-05-14T03:06:20.144Z,3.03
2019-05-14T03:09:21.700Z,3.20
2019-05-14T03:12:22.314Z,3.20
2019-05-14T03:15:23.202Z,3.13
2019-05-14T03:18:23.938Z,3.07
2019-05-14T03:21:24.677Z,3.77
2019-05-14T03:24:28.645Z,3.20
2019-05-14T03:27:30.433Z,3.13
2019-05-14T03:30:32.307Z,3.20
2019-05-14T03:33:34.319Z,3.37
2019-05-14T03:36:35.631Z,3.23
2019-05-14T03:39:39.429Z,3.93
2019-05-14T03:42:40.089Z,3.07
2019-05-14T03:45:40.684Z,3.57
2019-05-14T03:48:41.096Z,3.43
2019-05-14T03:51:42.039Z,3.30
2019-05-14T03:54:42.526Z,3.20
2019-05-14T03:57:43.386Z,3.90
2019-05-14T04:00:44.163Z,3.43
2019-05-14T04:03:44.578Z,3.33
2019-05-14T04:06:45.277Z,3.60
2019-05-14T04:09:49.077Z,3.53
2019-05-14T04:12:49.341Z,4.10
2019-05-14T04:15:50.170Z,3.90
2019-05-14T04:18:50.897Z,3.27
2019-05-14T04:21:51.629Z,3.30
2019-05-14T04:24:52.553Z,3.30
2019-05-14T04:27:53.426Z,3.17
2019-05-14T04:30:53.934Z,3.77
2019-05-14T04:33:54.821Z,3.60
2019-05-14T04:36:55.510Z,3.57
2019-05-14T04:39:59.261Z,3.80
2019-05-14T04:42:59.330Z,3.73
2019-05-14T04:45:59.956Z,3.57
2019-05-14T04:49:00.681Z,3.47
2019-05-14T04:52:01.456Z,3.93
2019-05-14T04:55:02.474Z,3.63
2019-05-14T04:58:03.359Z,4.00
2019-05-14T05:01:04.258Z,3.90
2019-05-14T05:04:04.908Z,3.40
2019-05-14T05:07:05.566Z,4.00
2019-05-14T05:10:09.753Z,4.10
2019-05-14T05:13:09.304Z,3.50
2019-05-14T05:16:10.242Z,3.40
2019-05-14T05:19:10.858Z,3.27
2019-05-14T05:22:12.548Z,3.40
2019-05-14T05:25:13.097Z,3.77
2019-05-14T05:28:13.949Z,4.10
2019-05-14T05:31:14.658Z,3.30
2019-05-14T05:34:15.801Z,3.80
2019-05-14T05:37:18.809Z,3.40
2019-05-14T05:40:19.827Z,3.50
2019-05-14T05:43:21.133Z,3.37
2019-05-14T05:46:21.941Z,3.70
2019-05-14T05:49:22.753Z,3.40
2019-05-14T05:52:23.551Z,4.00
2019-05-14T05:55:23.974Z,4.07
2019-05-14T05:58:24.682Z,3.77
2019-05-14T06:01:39.485Z,4.23
2019-05-14T06:04:29.145Z,4.10
2019-05-14T06:07:30.381Z,3.77
2019-05-14T06:10:31.052Z,4.03
2019-05-14T06:13:32.139Z,3.33
2019-05-14T06:16:32.717Z,3.90
2019-05-14T06:19:33.474Z,4.17
2019-05-14T06:22:34.153Z,3.17
2019-05-14T06:25:35.110Z,3.87
2019-05-14T06:28:35.753Z,3.70
2019-05-14T06:31:38.731Z,4.23
2019-05-14T06:34:39.578Z,3.90
2019-05-14T06:37:40.366Z,4.07
2019-05-14T06:40:40.821Z,3.73
2019-05-14T06:43:41.905Z,3.30
2019-05-14T06:46:42.665Z,3.53
2019-05-14T06:49:43.441Z,4.30
2019-05-14T06:52:44.073Z,3.93
2019-05-14T06:55:44.874Z,3.40
2019-05-14T06:58:45.662Z,3.50
2019-05-14T07:01:48.892Z,3.07
2019-05-14T07:04:49.730Z,3.03
2019-05-14T07:07:50.594Z,3.37
2019-05-14T07:10:51.589Z,3.27
2019-05-14T07:13:52.340Z,3.00
2019-05-14T07:16:53.122Z,3.20
2019-05-14T07:19:53.983Z,3.20
2019-05-14T07:22:54.941Z,3.13
2019-05-14T07:25:55.482Z,3.10
2019-05-14T07:28:56.165Z,3.33
2019-05-14T07:31:58.274Z,3.37
2019-05-14T07:34:59.740Z,3.13
2019-05-14T07:38:00.338Z,3.20
2019-05-14T07:41:01.239Z,3.67
2019-05-14T07:44:02.053Z,2.73
2019-05-14T07:47:02.676Z,2.80
2019-05-14T07:50:03.457Z,2.77
2019-05-14T07:52:52.248Z,2.63
2019-05-14T07:56:00.453Z,1.90
2019-05-14T07:59:08.960Z,1.90
2019-05-14T08:02:19.544Z,2.20
2019-05-14T08:05:28.761Z,1.93
2019-05-14T08:08:38.588Z,2.10
2019-05-14T08:11:48.032Z,1.93
2019-05-14T08:18:24.214Z,1.73
2019-05-14T08:21:32.241Z,1.30
2019-05-14T08:24:40.252Z,1.57
2019-05-14T08:27:48.391Z,1.80
2019-05-14T08:30:58.518Z,1.40
2019-05-14T08:34:09.223Z,1.60
2019-05-14T08:37:19.155Z,1.43
2019-05-14T08:40:20.968Z,1.83
2019-05-14T08:43:09.887Z,1.67
2019-05-14T08:46:19.145Z,1.50
2019-05-14T08:49:38.889Z,1.53
2019-05-14T08:52:39.343Z,1.70
2019-05-14T08:55:48.786Z,1.70
2019-05-14T08:58:58.935Z,2.00
2019-05-14T09:02:10.240Z,1.93
2019-05-14T09:05:18.271Z,1.77
2019-05-14T09:08:28.284Z,1.70
2019-05-14T09:11:42.658Z,1.97
2019-05-14T09:14:48.108Z,1.80
2019-05-14T09:17:55.388Z,2.00
2019-05-14T09:21:03.405Z,1.80
2019-05-14T09:24:11.429Z,1.60
2019-05-14T09:27:19.582Z,1.60
2019-05-14T09:30:29.313Z,1.43
2019-05-14T09:33:38.991Z,1.43
2019-05-14T09:36:48.930Z,1.67
2019-05-14T09:39:49.852Z,1.07
2019-05-14T09:42:50.796Z,1.33
2019-05-14T09:45:51.563Z,1.60
2019-05-14T09:48:52.345Z,1.50
2019-05-14T09:51:53.141Z,1.40
2019-05-14T09:54:53.951Z,1.20
2019-05-14T09:57:54.474Z,1.43
2019-05-14T10:00:55.162Z,1.20
2019-05-14T10:03:58.985Z,1.17
2019-05-14T10:06:59.418Z,1.27
2019-05-14T10:10:00.868Z,1.50
2019-05-14T10:13:01.894Z,1.60
2019-05-14T10:16:03.318Z,1.90
2019-05-14T10:19:04.201Z,1.40
2019-05-14T10:22:05.173Z,1.30
2019-05-14T10:24:54.049Z,1.30
2019-05-14T10:28:02.063Z,1.40
2019-05-14T10:31:13.209Z,1.27
2019-05-14T10:34:19.898Z,1.37
2019-05-14T10:37:28.768Z,1.30
2019-05-14T10:40:30.897Z,1.47
2019-05-14T10:43:31.654Z,1.30
2019-05-14T10:46:32.297Z,1.10
2019-05-14T10:49:32.940Z,1.10
2019-05-14T10:52:33.556Z,1.40
2019-05-14T10:55:34.465Z,1.20
2019-05-14T10:58:35.328Z,1.10
2019-05-14T11:01:36.074Z,1.00
2019-05-14T11:04:38.966Z,1.33
2019-05-14T11:07:41.738Z,1.20
2019-05-14T11:10:42.772Z,1.10
2019-05-14T11:13:43.816Z,1.17
2019-05-14T11:16:44.577Z,0.90
2019-05-14T11:19:47.752Z,1.30
2019-05-14T11:22:49.044Z,1.20
2019-05-14T11:25:50.201Z,1.13
2019-05-14T11:28:50.956Z,2.43
2019-05-14T11:31:51.670Z,1.17
2019-05-14T11:34:52.512Z,1.00
2019-05-14T11:37:53.374Z,0.90
2019-05-14T11:40:54.137Z,1.10
2019-05-14T11:43:55.022Z,0.97
2019-05-14T11:46:57.822Z,0.80
2019-05-14T11:49:59.249Z,1.00
2019-05-14T11:52:48.469Z,1.07
2019-05-14T11:55:58.678Z,1.10
2019-05-14T11:59:08.587Z,0.97
2019-05-14T12:02:18.913Z,5.40
2019-05-14T12:05:27.158Z,1.33
2019-05-14T12:08:35.185Z,0.83
2019-05-14T12:11:43.207Z,1.00
2019-05-14T12:14:51.297Z,1.23
2019-05-14T12:17:59.755Z,0.87
2019-05-14T12:21:09.158Z,0.90
2019-05-14T12:24:18.768Z,0.80
2019-05-14T12:27:26.791Z,1.00
2019-05-14T12:30:34.894Z,0.90
2019-05-14T12:33:42.993Z,1.10
2019-05-14T12:36:51.017Z,0.90
2019-05-14T12:39:50.184Z,0.93
2019-05-14T12:43:09.841Z,1.20
2019-05-14T12:46:10.373Z,1.10
2019-05-14T12:49:18.671Z,1.07
2019-05-14T12:52:29.523Z,1.00
2019-05-14T12:55:39.844Z,1.20
2019-05-14T12:58:48.963Z,1.10
2019-05-14T13:01:58.694Z,0.90
2019-05-14T13:05:29.330Z,1.00
2019-05-14T13:08:38.671Z,1.00
2019-05-14T13:11:48.059Z,0.77
2019-05-14T13:14:57.899Z,1.00
2019-05-14T13:18:08.549Z,1.13
2019-05-14T13:21:15.729Z,1.07
2019-05-14T13:24:23.754Z,1.00
2019-05-14T13:27:31.770Z,1.17
2019-05-14T13:30:39.808Z,1.07
2019-05-14T13:33:48.858Z,1.00
2019-05-14T13:36:59.694Z,1.00
2019-05-14T13:39:59.833Z,1.20
2019-05-14T13:43:00.626Z,1.20
2019-05-14T13:46:01.561Z,1.07
2019-05-14T13:49:02.330Z,1.20
2019-05-14T13:52:03.198Z,0.93
2019-05-14T13:55:03.880Z,1.20
2019-05-14T13:58:04.457Z,0.87
2019-05-14T14:01:05.109Z,1.10
2019-05-14T14:04:11.331Z,1.00
2019-05-14T14:07:09.075Z,1.07
2019-05-14T14:10:09.793Z,0.80
2019-05-14T14:13:11.509Z,0.90
2019-05-14T14:16:14.531Z,0.97
2019-05-14T14:19:15.117Z,0.90
2019-05-14T14:22:15.749Z,0.93
2019-05-14T14:25:17.764Z,0.80
2019-05-14T14:28:18.481Z,1.20
2019-05-14T14:31:19.245Z,1.20
2019-05-14T14:34:20.209Z,1.00
2019-05-14T14:37:20.699Z,0.90
2019-05-14T14:40:22.689Z,0.83
2019-05-14T14:43:23.829Z,0.90
2019-05-14T14:46:24.413Z,1.23
2019-05-14T14:49:24.850Z,1.00
2019-05-14T14:52:13.663Z,1.10
2019-05-14T14:55:21.941Z,0.93
2019-05-14T14:58:30.052Z,1.17
2019-05-14T15:01:40.238Z,1.20
2019-05-14T15:04:49.953Z,0.97
2019-05-14T15:08:00.203Z,1.00
2019-05-14T15:11:08.614Z,1.20
2019-05-14T15:14:20.095Z,1.10
2019-05-14T15:17:29.264Z,1.00
2019-05-14T15:20:36.606Z,0.97
2019-05-14T15:24:00.620Z,1.00
2019-05-14T15:26:54.419Z,0.87
2019-05-14T15:30:02.465Z,1.00
2019-05-14T15:33:10.494Z,1.10
2019-05-14T15:36:19.667Z,1.00
2019-05-14T15:39:22.477Z,1.20
2019-05-14T15:42:23.432Z,1.10
2019-05-14T15:45:24.085Z,0.90
2019-05-14T15:48:24.945Z,1.10
2019-05-14T15:51:25.422Z,0.93
2019-05-14T15:54:39.299Z,0.93
2019-05-14T15:57:29.052Z,0.83
2019-05-14T16:00:29.691Z,1.10
2019-05-14T16:03:30.090Z,1.10
2019-05-14T16:06:30.921Z,1.10
2019-05-14T16:09:31.309Z,1.00
2019-05-14T16:12:32.434Z,1.10
2019-05-14T16:15:33.665Z,1.30
2019-05-14T16:18:34.178Z,1.37
2019-05-14T16:21:34.913Z,1.37
2019-05-14T16:24:52.190Z,1.43
2019-05-14T16:27:39.482Z,1.10
2019-05-14T16:30:41.151Z,1.13
2019-05-14T16:33:41.593Z,1.50
2019-05-14T16:36:42.135Z,1.07
2019-05-14T16:39:42.702Z,1.10
2019-05-14T16:42:43.221Z,1.10
2019-05-14T16:45:43.958Z,1.10
2019-05-14T16:48:44.865Z,1.00
2019-05-14T16:51:45.586Z,1.10
2019-05-14T16:54:48.778Z,1.07
2019-05-14T16:57:49.440Z,1.00
2019-05-14T17:00:50.010Z,1.10
2019-05-14T17:03:50.602Z,1.03
2019-05-14T17:06:51.402Z,0.90
2019-05-14T17:09:51.929Z,0.97
2019-05-14T17:12:57.288Z,1.20
2019-05-14T17:15:55.386Z,1.03
2019-05-14T17:18:56.142Z,0.90
2019-05-14T17:21:59.266Z,1.00
2019-05-14T17:24:59.701Z,1.00
2019-05-14T17:27:48.714Z,1.07
2019-05-14T17:30:58.210Z,1.00
2019-05-14T17:34:08.621Z,0.80
2019-05-14T17:37:15.943Z,1.13
2019-05-14T17:40:16.838Z,1.10
2019-05-14T17:43:19.462Z,0.90
2019-05-14T17:46:20.073Z,1.10
2019-05-14T17:49:20.837Z,1.00
2019-05-14T17:52:22.089Z,1.27
2019-05-14T17:55:23.341Z,0.83
2019-05-14T17:58:25.273Z,0.90
2019-05-14T18:01:26.041Z,1.20
2019-05-14T18:04:28.324Z,1.30
2019-05-14T18:07:29.571Z,1.30
2019-05-14T18:10:30.161Z,1.10
2019-05-14T18:13:30.699Z,1.03
2019-05-14T18:16:31.495Z,1.00
2019-05-14T18:19:32.481Z,1.20
2019-05-14T18:22:33.269Z,1.10
2019-05-14T18:25:34.029Z,1.03
2019-05-14T18:28:35.049Z,1.40
2019-05-14T18:31:35.968Z,1.37
2019-05-14T18:34:24.893Z,1.30
2019-05-14T18:37:32.926Z,1.00
2019-05-14T18:40:34.194Z,0.90
2019-05-14T18:43:34.653Z,0.80
2019-05-14T18:46:39.385Z,1.20
2019-05-14T18:49:40.495Z,1.10
2019-05-14T18:52:41.161Z,1.23
2019-05-14T18:55:41.858Z,1.37
2019-05-14T18:58:42.640Z,1.07
2019-05-14T19:01:43.657Z,1.40
2019-05-14T19:04:44.231Z,1.60
2019-05-14T19:07:45.098Z,1.67
2019-05-14T19:10:33.912Z,2.00
2019-05-14T19:13:41.921Z,1.80
2019-05-14T19:16:49.952Z,1.60
2019-05-14T19:19:58.874Z,1.20
2019-05-14T19:23:08.157Z,1.20
2019-05-14T19:26:32.526Z,0.97
2019-05-14T19:29:28.177Z,1.00
2019-05-14T19:32:39.222Z,1.10
2019-05-14T19:35:48.518Z,1.27
2019-05-14T19:38:58.288Z,1.07
2019-05-14T19:42:08.446Z,1.00
2019-05-14T19:45:15.957Z,1.00
2019-05-14T19:48:23.993Z,1.00
2019-05-14T19:51:32.017Z,1.10
2019-05-14T19:54:40.020Z,1.20
2019-05-14T19:57:48.957Z,1.00
2019-05-14T20:00:57.837Z,1.10
2019-05-14T20:04:05.867Z,1.17
2019-05-14T20:07:14.091Z,1.00
2019-05-14T20:10:22.098Z,0.90
2019-05-14T20:13:30.137Z,1.07
2019-05-14T20:16:39.286Z,2.17
2019-05-14T20:19:49.412Z,1.00
2019-05-14T20:23:09.414Z,1.10
2019-05-14T20:26:08.295Z,0.90
2019-05-14T20:29:19.257Z,0.83
2019-05-14T20:32:27.022Z,1.00
2019-05-14T20:35:35.237Z,1.00
2019-05-14T20:38:43.306Z,1.30
2019-05-14T20:41:43.966Z,1.33
2019-05-14T20:44:44.894Z,1.00
2019-05-14T20:47:48.005Z,1.23
2019-05-14T20:50:48.536Z,1.13
2019-05-14T20:53:49.509Z,0.80
2019-05-14T20:56:50.018Z,1.23
2019-05-14T20:59:50.957Z,1.07
2019-05-14T21:02:51.954Z,3.23
2019-05-14T21:05:52.606Z,1.40
2019-05-14T21:08:53.331Z,0.93
2019-05-14T21:11:53.953Z,0.93
2019-05-14T21:14:54.878Z,1.00
2019-05-14T21:17:55.646Z,1.30
2019-05-14T21:20:56.313Z,1.10
2019-05-14T21:23:58.638Z,0.80
2019-05-14T21:26:59.430Z,0.93
2019-05-14T21:29:59.898Z,1.10
2019-05-14T21:33:00.807Z,1.00
2019-05-14T21:36:01.421Z,0.90
2019-05-14T21:39:02.131Z,1.00
2019-05-14T21:42:02.741Z,1.00
2019-05-14T21:45:06.514Z,1.10
2019-05-14T21:48:08.481Z,0.90
2019-05-14T21:51:08.867Z,1.23
2019-05-14T21:54:09.631Z,1.63
2019-05-14T21:57:11.748Z,1.10
2019-05-14T22:00:12.871Z,0.97
2019-05-14T22:03:14.130Z,1.00
2019-05-14T22:06:14.887Z,1.10
2019-05-14T22:09:15.529Z,0.80
2019-05-14T22:12:15.870Z,1.00
2019-05-14T22:15:18.410Z,0.90
2019-05-14T22:18:20.765Z,1.10
2019-05-14T22:21:22.025Z,1.03
2019-05-14T22:24:22.756Z,1.00
2019-05-14T22:27:23.423Z,1.00
2019-05-14T22:30:23.941Z,1.10
2019-05-14T22:33:24.758Z,1.07
2019-05-14T22:36:25.535Z,1.03
2019-05-14T22:39:26.344Z,1.30
2019-05-14T22:42:28.231Z,1.00
2019-05-14T22:45:29.419Z,1.20
2019-05-14T22:48:30.145Z,0.90
2019-05-14T22:51:33.165Z,1.20
2019-05-14T22:54:33.793Z,1.00
2019-05-14T22:57:34.625Z,1.07
2019-05-14T23:00:35.517Z,1.40
2019-05-14T23:03:36.344Z,0.90
2019-05-14T23:06:38.286Z,0.93
2019-05-14T23:09:38.948Z,1.30
2019-05-14T23:12:39.428Z,1.00
2019-05-14T23:15:40.305Z,0.90
2019-05-14T23:18:29.104Z,1.00
2019-05-14T23:21:39.036Z,1.23
2019-05-14T23:24:46.904Z,0.90
2019-05-14T23:27:54.925Z,1.40
2019-05-14T23:31:02.958Z,1.00
2019-05-14T23:33:51.724Z,1.13
2019-05-14T23:36:59.933Z,1.10
2019-05-14T23:40:00.318Z,1.00
2019-05-14T23:43:00.978Z,1.00
2019-05-14T23:46:01.710Z,1.40
2019-05-14T23:49:02.177Z,1.00
2019-05-14T23:52:02.975Z,1.10
2019-05-14T23:55:03.806Z,0.90
2019-05-14T23:58:04.263Z,1.10
